Time;durP1;ratioP1;P1;durP2;ratioP2;P2;SDS_P1;SDS_P2;PMS_P1;PMS_P2;Temp;Humidity;BMP_temperature;BMP_pressure;BME280_temperature;BME280_humidity;BME280_pressure;Samples;Min_cycle;Max_cycle;Signal;HPM_P1;HPM_P2
2023/10/07 00:03:00;;;;;;;;;14.00;14.00;;;;;15.14;100.00;102387.75;5063963;28;45847;-73
2023/10/07 00:05:35;;;;;;;;;22.00;15.00;;;;;15.13;100.00;102381.56;5052583;28;46898;-73
2023/10/07 00:08:02;;;;;;;;;18.00;12.00;;;;;15.16;100.00;102376.25;5054139;28;45241;-73
2023/10/07 00:10:29;;;;;;;;;20.67;16.00;;;;;15.14;100.00;102382.44;5053537;28;45515;-73
2023/10/07 00:12:57;;;;;;;;;18.67;16.67;;;;;15.14;100.00;102377.13;5053346;28;45967;-73
2023/10/07 00:15:28;;;;;;;;;14.67;13.33;;;;;15.13;100.00;102372.69;5054985;28;45323;-72
2023/10/07 00:17:56;;;;;;;;;19.75;15.25;;;;;15.22;100.00;102379.91;5052099;28;45442;-72
2023/10/07 00:20:23;;;;;;;;;21.33;16.00;;;;;15.18;100.00;102374.53;5055063;28;45583;-71
2023/10/07 00:22:54;;;;;;;;;16.67;14.00;;;;;15.13;100.00;102375.34;5053634;28;46102;-73
2023/10/07 00:25:19;;;;;;;;;15.33;13.67;;;;;15.09;100.00;102371.72;5055096;28;45648;-73
2023/10/07 00:27:48;;;;;;;;;18.33;16.67;;;;;15.12;100.00;102374.41;5053783;28;45477;-73
2023/10/07 00:30:15;;;;;;;;;22.33;13.00;;;;;15.06;100.00;102376.97;5052523;28;45680;-73
2023/10/07 00:32:41;;;;;;;;;15.33;13.33;;;;;15.06;100.00;102371.66;5055029;28;45835;-72
2023/10/07 00:35:07;;;;;;;;;15.25;14.00;;;;;15.05;100.00;102374.28;5053157;28;45482;-73
2023/10/07 00:37:43;;;;;;;;;15.67;13.33;;;;;15.02;100.00;102369.84;5055263;28;45257;-74
2023/10/07 00:40:33;;;;;;;;;16.00;15.50;;;;;15.01;100.00;102369.78;5053695;28;45565;-74
2023/10/07 00:42:58;;;;;;;;;15.00;15.00;;;;;15.00;100.00;102368.00;5054377;28;45729;-73
2023/10/07 00:45:27;;;;;;;;;15.00;14.00;;;;;15.02;100.00;102361.84;5046527;28;45713;-73
2023/10/07 00:47:52;;;;;;;;;15.33;14.67;;;;;15.03;100.00;102366.28;5052549;28;45462;-74
2023/10/07 00:50:22;;;;;;;;;18.00;17.00;;;;;14.99;100.00;102372.44;5055183;28;45230;-74
2023/10/07 00:55:22;;;;;;;;;17.00;14.00;;;;;14.97;100.00;102366.19;5052321;28;45467;-75
2023/10/07 00:57:48;;;;;;;;;14.50;14.00;;;;;14.97;100.00;102371.53;5054232;28;45363;-74
2023/10/07 01:02:50;;;;;;;;;16.00;14.00;;;;;14.94;100.00;102358.16;5055195;28;45776;-73
2023/10/07 01:05:22;;;;;;;;;13.33;11.67;;;;;14.92;100.00;102354.59;5056587;28;45483;-72
2023/10/07 01:07:53;;;;;;;;;13.67;12.00;;;;;14.92;100.00;102357.25;5055447;28;45484;-73
2023/10/07 01:10:24;;;;;;;;;16.00;14.00;;;;;14.90;100.00;102358.97;5058283;28;45514;-73
2023/10/07 01:12:51;;;;;;;;;14.75;13.50;;;;;14.87;100.00;102351.84;5058248;28;46596;-73
2023/10/07 01:17:47;;;;;;;;;13.67;11.33;;;;;14.85;100.00;102345.56;5055275;28;45553;-73
2023/10/07 01:20:13;;;;;;;;;18.00;14.67;;;;;14.83;100.00;102349.09;5057001;28;45597;-73
2023/10/07 01:22:44;;;;;;;;;18.67;13.67;;;;;14.80;100.00;102341.94;5055113;28;46546;-73
2023/10/07 01:25:17;;;;;;;;;14.25;14.25;;;;;14.79;100.00;102339.25;5056569;28;46072;-73
2023/10/07 01:27:49;;;;;;;;;14.50;14.25;;;;;14.79;100.00;102337.50;5058101;28;45401;-73
2023/10/07 01:30:25;;;;;;;;;13.67;11.00;;;;;14.75;100.00;102329.44;5058149;28;45406;-73
2023/10/07 01:33:24;;;;;;;;;17.00;14.00;;;;;14.76;100.00;102325.94;5057829;28;46684;-73
2023/10/07 01:35:44;;;;;;;;;15.50;10.75;;;;;14.73;100.00;102326.75;5054900;28;45155;-72
2023/10/07 01:38:09;;;;;;;;;14.25;12.50;;;;;14.72;100.00;102316.09;5057714;28;45334;-73
2023/10/07 01:43:16;;;;;;;;;13.25;12.00;;;;;14.70;100.00;102321.41;5056011;28;46369;-72
2023/10/07 01:45:42;;;;;;;;;14.75;13.25;;;;;14.70;100.00;102317.81;5057381;28;50236;-73
2023/10/07 01:48:07;;;;;;;;;15.00;13.00;;;;;14.67;100.00;102316.00;5056279;28;45472;-73
2023/10/07 01:50:40;;;;;;;;;14.75;14.25;;;;;14.70;100.00;102315.16;5057231;28;45346;-73
2023/10/07 01:53:06;;;;;;;;;13.67;13.67;;;;;14.69;100.00;102311.59;5058300;28;46626;-73
2023/10/07 01:55:47;;;;;;;;;17.67;14.33;;;;;14.72;100.00;102313.44;5055635;28;45462;-73
2023/10/07 01:58:14;;;;;;;;;18.25;14.25;;;;;14.65;100.00;102320.41;5055762;28;45350;-74
2023/10/07 02:00:46;;;;;;;;;15.00;14.67;;;;;14.63;100.00;102324.78;5055967;28;45550;-72
2023/10/07 02:03:23;;;;;;;;;21.67;14.33;;;;;14.62;100.00;102326.56;5054469;28;45959;-73
2023/10/07 02:05:50;;;;;;;;;12.50;12.50;;;;;14.61;100.00;102321.22;5055342;28;45462;-74
2023/10/07 02:08:23;;;;;;;;;13.00;13.00;;;;;14.60;100.00;102335.38;5055747;28;45296;-74
2023/10/07 02:10:58;;;;;;;;;17.50;15.00;;;;;14.62;100.00;102333.63;5056258;28;45461;-74
2023/10/07 02:13:27;;;;;;;;;14.00;13.33;;;;;14.62;100.00;102345.16;5055195;28;45802;-74
2023/10/07 02:15:54;;;;;;;;;17.00;12.33;;;;;14.62;100.00;102345.16;5055452;28;45870;-74
2023/10/07 02:18:20;;;;;;;;;16.00;12.00;;;;;14.65;100.00;102349.66;5055900;28;45310;-74
2023/10/07 02:20:52;;;;;;;;;12.33;11.67;;;;;14.66;100.00;102352.34;5055422;28;45586;-73
2023/10/07 02:23:34;;;;;;;;;17.00;15.00;;;;;14.65;100.00;102358.53;5055467;28;46200;-74
2023/10/07 02:25:59;;;;;;;;;18.00;13.33;;;;;14.68;100.00;102358.56;5049668;28;45521;-74
2023/10/07 02:28:29;;;;;;;;;12.00;12.00;;;;;14.67;100.00;102356.78;5056934;28;45431;-74
2023/10/07 02:31:01;;;;;;;;;11.00;11.00;;;;;14.68;100.00;102350.59;5055867;28;45625;-73
2023/10/07 02:33:41;;;;;;;;;11.00;10.00;;;;;14.68;100.00;102350.59;5055249;28;45818;-75
2023/10/07 02:36:10;;;;;;;;;15.00;14.00;;;;;14.67;100.00;102362.09;5052552;28;45471;-74
2023/10/07 02:38:37;;;;;;;;;10.00;6.33;;;;;14.65;100.00;102355.88;5061211;28;45643;-73
2023/10/07 02:41:15;;;;;;;;;14.00;12.33;;;;;14.67;100.00;102355.88;5056836;28;45421;-74
2023/10/07 02:43:43;;;;;;;;;14.00;12.00;;;;;14.64;100.00;102343.41;5050607;28;46650;-73
2023/10/07 02:46:09;;;;;;;;;18.00;15.00;;;;;14.64;100.00;102345.19;5055750;28;45435;-74
2023/10/07 02:48:45;;;;;;;;;17.00;14.00;;;;;14.63;100.00;102346.94;5054761;28;45429;-73
2023/10/07 02:51:11;;;;;;;;;14.00;14.00;;;;;14.65;100.00;102345.25;5055091;28;45494;-73
2023/10/07 02:53:36;;;;;;;;;15.67;15.33;;;;;14.67;100.00;102338.16;5052839;27;46474;-72
2023/10/07 02:56:16;;;;;;;;;16.00;13.00;;;;;14.68;100.00;102334.63;5054205;28;45524;-73
2023/10/07 02:58:59;;;;;;;;;13.33;12.33;;;;;14.70;100.00;102331.09;5055145;28;45391;-72
2023/10/07 03:01:25;;;;;;;;;16.00;14.00;;;;;14.66;100.00;102327.53;5052790;28;45574;-73
2023/10/07 03:03:51;;;;;;;;;16.50;12.00;;;;;14.64;100.00;102338.09;5062442;27;45939;-73
2023/10/07 03:06:19;;;;;;;;;17.25;13.00;;;;;14.63;100.00;102340.75;5054571;28;45599;-73
2023/10/07 03:11:20;;;;;;;;;11.50;8.75;;;;;14.58;100.00;102345.06;5054026;28;45554;-73
2023/10/07 03:13:49;;;;;;;;;17.33;14.00;;;;;14.55;100.00;102343.28;5053221;28;45797;-73
2023/10/07 03:18:49;;;;;;;;;16.50;14.00;;;;;14.55;100.00;102345.03;5048611;28;45444;-73
2023/10/07 03:21:15;;;;;;;;;18.50;16.00;;;;;14.53;100.00;102350.31;5054523;28;45630;-73
2023/10/07 03:23:47;;;;;;;;;17.00;13.67;;;;;14.53;100.00;102350.31;5053841;28;45716;-73
2023/10/07 03:26:21;;;;;;;;;13.50;10.50;;;;;14.51;100.00;102354.72;5054803;28;45429;-73
2023/10/07 03:28:55;;;;;;;;;20.25;17.00;;;;;14.48;100.00;102353.75;5056104;28;45467;-73
2023/10/07 03:31:34;;;;;;;;;23.00;15.00;;;;;14.51;100.00;102353.81;5055455;28;45467;-73
2023/10/07 03:33:59;;;;;;;;;19.50;16.00;;;;;14.50;100.00;102349.38;5047375;28;45682;-72
2023/10/07 03:36:41;;;;;;;;;22.00;14.75;;;;;14.49;100.00;102356.44;5053846;28;70117;-73
2023/10/07 03:41:48;;;;;;;;;13.75;13.75;;;;;14.44;100.00;102352.78;5054361;28;45281;-73
2023/10/07 03:44:17;;;;;;;;;18.50;14.25;;;;;14.43;100.00;102353.59;5049173;28;47006;-73
2023/10/07 03:46:48;;;;;;;;;18.33;15.00;;;;;14.43;100.00;102353.59;5053306;28;45589;-72
2023/10/07 03:49:16;;;;;;;;;21.00;13.75;;;;;14.39;100.00;102350.03;5053728;28;45453;-73
2023/10/07 03:51:45;;;;;;;;;15.50;15.00;;;;;14.39;100.00;102354.44;5067159;27;45507;-73
2023/10/07 03:54:12;;;;;;;;;19.00;13.75;;;;;14.36;100.00;102351.72;5055104;28;46771;-73
2023/10/07 03:56:37;;;;;;;;;15.00;13.00;;;;;14.35;100.00;102348.16;5055064;28;45474;-73
2023/10/07 03:59:05;;;;;;;;;22.25;19.00;;;;;14.34;100.00;102343.72;5054649;28;45321;-73
2023/10/07 04:01:32;;;;;;;;;18.75;17.00;;;;;14.34;100.00;102349.03;5060798;28;45567;-73
2023/10/07 04:03:59;;;;;;;;;15.25;15.25;;;;;14.32;100.00;102350.75;5054327;28;45915;-73
2023/10/07 04:06:30;;;;;;;;;18.50;15.25;;;;;14.30;100.00;102340.97;5053376;28;45486;-73
2023/10/07 04:09:05;;;;;;;;;20.50;15.00;;;;;14.31;100.00;102350.72;5053872;28;45371;-73
2023/10/07 04:11:31;;;;;;;;;14.50;14.25;;;;;14.28;100.00;102350.69;5054842;28;46686;-73
2023/10/07 04:13:57;;;;;;;;;21.75;16.00;;;;;14.27;100.00;102347.09;5036610;28;47914;-72
2023/10/07 04:16:23;;;;;;;;;17.75;16.25;;;;;14.24;100.00;102343.50;5055575;28;45400;-72
2023/10/07 04:19:06;;;;;;;;;14.00;12.00;;;;;14.27;100.00;102346.19;5046923;28;45477;-73
2023/10/07 04:21:32;;;;;;;;;16.75;14.00;;;;;14.25;100.00;102342.63;5047099;28;45337;-73
2023/10/07 04:24:01;;;;;;;;;18.25;14.00;;;;;14.27;100.00;102340.88;5054507;28;46958;-73
2023/10/07 04:26:26;;;;;;;;;14.75;13.75;;;;;14.24;100.00;102346.16;5055060;28;45297;-73
2023/10/07 04:28:53;;;;;;;;;15.50;12.75;;;;;14.22;100.00;102342.56;5053639;28;55679;-73
2023/10/07 04:31:29;;;;;;;;;19.50;12.50;;;;;14.22;100.00;102342.56;5062515;28;45278;-72
2023/10/07 04:33:54;;;;;;;;;15.00;12.67;;;;;14.20;100.00;102337.22;5052869;28;47548;-73
2023/10/07 04:37:08;;;;;;;;;15.50;14.00;;;;;14.18;100.00;102341.63;5054359;28;45467;-73
2023/10/07 04:39:27;;;;;;;;;19.50;17.50;;;;;14.15;100.00;102339.78;5057159;28;45659;-72
2023/10/07 04:41:57;;;;;;;;;13.50;13.50;;;;;14.14;100.00;102345.97;5055112;28;45344;-72
2023/10/07 04:52:33;;;;;;;;;14.75;14.00;;;;;14.07;100.00;102346.72;5051356;28;45389;-72
2023/10/07 04:54:59;;;;;;;;;18.75;14.00;;;;;14.08;100.00;102343.19;5073078;27;46657;-73
2023/10/07 05:00:27;;;;;;;;;14.75;13.50;;;;;14.07;100.00;102341.41;5057505;28;45490;-73
2023/10/07 05:02:59;;;;;;;;;15.25;13.25;;;;;14.05;100.00;102343.09;5054349;28;45927;-73
2023/10/07 05:05:33;;;;;;;;;22.75;16.50;;;;;14.03;100.00;102342.19;5057537;28;46660;-73
2023/10/07 05:08:19;;;;;;;;;19.25;14.50;;;;;14.04;100.00;102348.41;5056692;28;45318;-73
2023/10/07 05:10:52;;;;;;;;;16.75;14.50;;;;;14.01;100.00;102343.94;5053090;28;45884;-72
2023/10/07 05:13:18;;;;;;;;;16.50;14.00;;;;;14.02;100.00;102356.34;5058623;28;45370;-73
2023/10/07 05:15:43;;;;;;;;;16.00;12.00;;;;;14.03;100.00;102352.81;5055968;28;45509;-73
2023/10/07 05:18:12;;;;;;;;;17.00;14.00;;;;;14.04;100.00;102349.28;5056176;28;45434;-72
2023/10/07 05:20:41;;;;;;;;;16.75;14.50;;;;;14.06;100.00;102347.59;5054890;28;45677;-73
2023/10/07 05:23:07;;;;;;;;;15.50;13.50;;;;;14.04;100.00;102349.28;5057183;28;45543;-73
2023/10/07 05:25:38;;;;;;;;;16.75;15.00;;;;;14.04;100.00;102349.28;5056324;28;48821;-73
2023/10/07 05:28:10;;;;;;;;;17.75;16.50;;;;;14.03;100.00;102358.13;5057803;28;45539;-73
2023/10/07 05:30:43;;;;;;;;;12.50;12.50;;;;;14.06;100.00;102354.63;5055271;28;45555;-73
2023/10/07 05:33:09;;;;;;;;;15.25;15.25;;;;;14.02;100.00;102355.44;5057050;28;45341;-72
2023/10/07 05:35:37;;;;;;;;;15.25;13.00;;;;;14.05;100.00;102353.72;5057886;28;46349;-73
2023/10/07 05:38:09;;;;;;;;;18.75;15.50;;;;;14.03;100.00;102355.47;5057051;28;45610;-73
2023/10/07 05:40:36;;;;;;;;;16.00;15.00;;;;;14.03;100.00;102352.81;5056504;28;45348;-73
2023/10/07 05:43:02;;;;;;;;;14.00;13.00;;;;;14.02;100.00;102356.34;5056520;28;45603;-73
2023/10/07 05:45:28;;;;;;;;;18.75;16.75;;;;;14.04;100.00;102345.75;5056307;28;46045;-73
2023/10/07 05:47:54;;;;;;;;;17.50;14.00;;;;;14.02;100.00;102350.13;5056710;28;45506;-72
2023/10/07 05:50:22;;;;;;;;;17.50;13.00;;;;;14.00;100.00;102352.75;5055040;28;45249;-73
2023/10/07 05:52:47;;;;;;;;;16.00;12.50;;;;;14.01;100.00;102351.91;5057111;28;45562;-73
2023/10/07 05:55:13;;;;;;;;;20.00;15.25;;;;;13.99;100.00;102348.28;5056487;28;46653;-73
2023/10/07 05:57:39;;;;;;;;;21.50;17.00;;;;;14.01;100.00;102348.31;5055272;28;45570;-73
2023/10/07 06:00:09;;;;;;;;;17.00;15.00;;;;;13.99;100.00;102347.41;5057493;28;45355;-73
2023/10/07 06:02:35;;;;;;;;;20.50;15.50;;;;;13.97;100.00;102339.41;5055183;28;45448;-73
2023/10/07 06:05:00;;;;;;;;;14.25;14.25;;;;;14.01;100.00;102337.69;5056467;28;46943;-72
2023/10/07 06:07:26;;;;;;;;;13.50;13.50;;;;;14.00;100.00;102339.47;5052156;28;70241;-72
2023/10/07 06:09:52;;;;;;;;;14.75;13.00;;;;;14.01;100.00;102335.03;5063119;28;45527;-72
2023/10/07 06:12:18;;;;;;;;;14.75;13.00;;;;;14.00;100.00;102350.09;5039118;28;45480;-73
2023/10/07 06:14:43;;;;;;;;;14.00;14.00;;;;;14.00;100.00;102346.53;5056358;28;46836;-73
2023/10/07 06:17:11;;;;;;;;;17.25;16.00;;;;;14.03;100.00;102347.50;5056525;28;66541;-72
2023/10/07 06:19:37;;;;;;;;;17.75;14.00;;;;;14.04;100.00;102351.06;5056322;28;45475;-73
2023/10/07 06:22:11;;;;;;;;;15.00;11.25;;;;;14.05;100.00;102355.50;5055267;28;45563;-72
2023/10/07 06:24:41;;;;;;;;;23.00;15.25;;;;;14.02;100.00;102351.03;5055060;28;45984;-72
2023/10/07 06:27:11;;;;;;;;;17.25;15.00;;;;;14.03;100.00;102354.59;5051209;28;46034;-75
2023/10/07 06:29:41;;;;;;;;;18.50;15.25;;;;;13.99;100.00;102358.03;5056741;28;45537;-75
2023/10/07 06:32:25;;;;;;;;;20.25;18.00;;;;;13.94;100.00;102359.69;5050721;28;45457;-73
2023/10/07 06:34:55;;;;;;;;;20.25;18.00;;;;;13.85;100.00;102369.25;5056297;28;46299;-73
2023/10/07 06:37:25;;;;;;;;;16.00;14.00;;;;;13.80;100.00;102367.38;5054820;28;45305;-73
2023/10/07 06:39:51;;;;;;;;;19.00;15.75;;;;;13.76;100.00;102376.13;5056053;28;45600;-73
2023/10/07 06:42:21;;;;;;;;;17.25;14.00;;;;;13.71;100.00;102383.09;5055192;28;45511;-74
2023/10/07 06:44:47;;;;;;;;;20.75;17.75;;;;;13.71;100.00;102380.44;5055971;28;45809;-73
2023/10/07 06:47:12;;;;;;;;;17.50;14.50;;;;;13.70;100.00;102379.53;5056039;28;45520;-73
2023/10/07 06:49:39;;;;;;;;;15.75;14.00;;;;;13.68;100.00;102380.34;5054917;28;45327;-74
2023/10/07 06:52:04;;;;;;;;;17.75;17.75;;;;;13.69;100.00;102382.13;5054620;28;45478;-73
2023/10/07 06:54:33;;;;;;;;;19.00;19.00;;;;;13.71;100.00;102385.72;5052172;28;62003;-73
2023/10/07 06:57:04;;;;;;;;;23.25;16.00;;;;;13.70;100.00;102384.84;5066749;27;46404;-73
2023/10/07 06:59:29;;;;;;;;;17.50;14.25;;;;;13.70;100.00;102387.50;5050409;28;45524;-72
2023/10/07 07:01:55;;;;;;;;;18.25;17.25;;;;;13.74;100.00;102385.78;5052052;28;45634;-73
2023/10/07 07:04:22;;;;;;;;;21.25;16.25;;;;;13.74;100.00;102383.13;5064005;27;45671;-73
2023/10/07 07:07:37;;;;;;;;;19.50;17.00;;;;;13.77;100.00;102381.44;5053200;28;45630;-73
2023/10/07 07:12:17;;;;;;;;;20.75;19.00;;;;;13.85;100.00;102389.63;5051835;28;47277;-73
2023/10/07 07:14:50;;;;;;;;;16.75;15.50;;;;;13.90;100.00;102393.22;5051845;28;45846;-73
2023/10/07 07:17:29;;;;;;;;;21.00;18.25;;;;;13.93;100.00;102395.97;5060566;27;47144;-74
2023/10/07 07:22:42;;;;;;;;;22.75;21.75;;;;;14.04;100.00;102391.78;5053411;28;45414;-72
2023/10/07 07:25:12;;;;;;;;;22.25;21.50;;;;;14.09;100.00;102395.44;5056804;28;46666;-72
2023/10/07 07:27:50;;;;;;;;;20.25;17.00;;;;;14.18;100.00;102410.69;5051727;28;45549;-72
2023/10/07 07:30:29;;;;;;;;;24.00;20.00;;;;;14.24;100.00;102413.47;5060964;28;45586;-72
2023/10/07 07:32:55;;;;;;;;;24.75;19.75;;;;;14.30;100.00;102416.25;5055234;28;45205;-73
2023/10/07 07:35:40;;;;;;;;;25.25;24.50;;;;;14.34;100.00;102414.56;5055204;28;45699;-72
2023/10/07 07:38:11;;;;;;;;;30.50;23.75;;;;;14.42;100.00;102418.25;5052042;28;45512;-72
2023/10/07 07:40:40;;;;;;;;;25.50;21.50;;;;;14.49;100.00;102412.28;5070367;27;45600;-73
2023/10/07 07:43:07;;;;;;;;;21.00;21.00;;;;;14.58;100.00;102423.06;5048900;28;45537;-74
2023/10/07 07:45:35;;;;;;;;;23.25;22.25;;;;;14.66;100.00;102421.47;5045089;28;48726;-72
2023/10/07 07:48:04;;;;;;;;;24.50;21.75;;;;;14.72;100.00;102426.00;5051683;28;45849;-73
2023/10/07 07:50:35;;;;;;;;;23.00;22.00;;;;;14.77;100.00;102439.38;5048026;28;45609;-74
2023/10/07 07:53:09;;;;;;;;;26.75;20.50;;;;;14.91;100.00;102435.22;5050273;28;45547;-74
2023/10/07 07:55:37;;;;;;;;;25.75;22.25;;;;;14.90;100.00;102433.44;5054319;28;46398;-73
2023/10/07 07:58:03;;;;;;;;;24.75;23.00;;;;;14.99;100.00;102435.38;5052514;28;45540;-73
2023/10/07 08:00:31;;;;;;;;;23.00;20.25;;;;;15.04;100.00;102450.56;5052970;28;45503;-74
2023/10/07 08:02:59;;;;;;;;;19.00;18.50;;;;;15.13;100.00;102456.06;5054858;28;45530;-74
2023/10/07 08:05:34;;;;;;;;;24.75;23.50;;;;;15.23;100.00;102458.84;5052070;28;45700;-73
2023/10/07 08:07:59;;;;;;;;;25.75;23.25;;;;;15.34;100.00;102462.59;5045528;28;45478;-75
2023/10/07 08:10:28;;;;;;;;;22.00;22.00;;;;;15.42;100.00;102458.31;5054740;28;45900;-75
2023/10/07 08:12:53;;;;;;;;;20.67;20.67;;;;;15.50;100.00;102462.03;5058592;28;45387;-75
2023/10/07 08:15:22;;;;;;;;;22.00;19.33;;;;;15.59;100.00;102455.94;5057258;28;45514;-73
2023/10/07 08:17:56;;;;;;;;;27.33;20.00;;;;;15.66;100.00;102448.13;5057349;28;45672;-74
2023/10/07 08:20:33;;;;;;;;;19.00;18.00;;;;;15.78;100.00;102442.09;5071995;28;45749;-74
2023/10/07 08:23:07;;;;;;;;;21.33;16.00;;;;;15.86;100.00;102455.50;5070955;27;45582;-74
2023/10/07 08:25:45;;;;;;;;;22.67;19.00;;;;;15.93;100.00;102460.97;5057703;28;45693;-73
2023/10/07 08:28:59;;;;;;;;;19.67;18.33;;;;;16.05;100.00;102465.56;5057123;28;45801;-75
2023/10/07 08:31:12;;;;;;;;;19.33;17.33;;;;;16.15;100.00;102467.50;5051676;28;45386;-73
2023/10/07 08:33:37;;;;;;;;;19.75;18.25;;;;;16.23;100.00;102465.81;5058762;28;45498;-74
2023/10/07 08:36:07;;;;;;;;;24.00;18.33;;;;;16.35;100.00;102474.84;5057077;28;60164;-74
2023/10/07 08:38:43;;;;;;;;;21.67;21.00;;;;;16.44;100.00;102462.53;5062942;28;45555;-75
2023/10/07 08:41:10;;;;;;;;;18.33;17.00;;;;;16.53;100.00;102460.88;5055815;28;45484;-74
2023/10/07 08:43:45;;;;;;;;;22.00;18.00;;;;;16.63;100.00;102463.69;5055958;28;45399;-74
2023/10/07 08:46:19;;;;;;;;;22.00;18.00;;;;;16.74;100.00;102461.19;5054509;28;46458;-74
2023/10/07 08:48:58;;;;;;;;;17.33;16.67;;;;;16.87;100.00;102467.53;5056079;28;45497;-74
2023/10/07 08:51:24;;;;;;;;;20.00;18.00;;;;;16.97;100.00;102464.09;5059527;28;45581;-74
2023/10/07 08:54:09;;;;;;;;;23.67;20.00;;;;;17.05;100.00;102464.19;5060879;27;45489;-75
2023/10/07 08:56:37;;;;;;;;;19.00;17.33;;;;;17.15;100.00;102461.63;5056846;28;46261;-74
2023/10/07 08:59:12;;;;;;;;;17.67;15.00;;;;;17.27;100.00;102459.06;5055432;28;47161;-74
2023/10/07 09:01:43;;;;;;;;;18.00;18.00;;;;;17.36;100.00;102460.91;5055312;28;47786;-74
2023/10/07 09:04:08;;;;;;;;;18.33;13.33;;;;;17.44;100.00;102455.66;5055931;28;45706;-73
2023/10/07 09:06:37;;;;;;;;;17.67;16.67;;;;;17.55;100.00;102459.31;5055368;28;48388;-72
2023/10/07 09:09:09;;;;;;;;;15.67;15.00;;;;;17.64;100.00;102456.72;5051723;28;45578;-74
2023/10/07 09:11:37;;;;;;;;;14.00;14.00;;;;;17.77;100.00;102455.94;5056220;28;46593;-74
2023/10/07 09:14:18;;;;;;;;;21.00;14.00;;;;;17.87;100.00;102453.34;5050657;28;45646;-76
2023/10/07 09:16:44;;;;;;;;;20.67;17.33;;;;;17.95;100.00;102447.19;5055013;28;45785;-73
2023/10/07 09:19:15;;;;;;;;;16.00;16.00;;;;;18.02;100.00;102445.44;5055562;28;45595;-72
2023/10/07 09:21:44;;;;;;;;;17.33;14.33;;;;;18.14;100.00;102453.50;5056255;28;45508;-73
2023/10/07 09:24:26;;;;;;;;;13.33;12.33;;;;;18.24;100.00;102449.13;5055814;28;45482;-75
2023/10/07 09:26:58;;;;;;;;;14.00;14.00;;;;;18.29;100.00;102450.94;5049288;28;46839;-75
2023/10/07 09:29:24;;;;;;;;;14.00;12.33;;;;;18.36;100.00;102443.81;5059584;28;45321;-75
2023/10/07 09:32:07;;;;;;;;;14.00;14.00;;;;;18.45;100.00;102445.66;5049876;28;45222;-74
2023/10/07 09:34:47;;;;;;;;;16.67;13.00;;;;;18.53;100.00;102443.88;5070641;27;45534;-74
2023/10/07 09:37:13;;;;;;;;;15.00;13.67;;;;;18.65;100.00;102449.31;5056625;28;46732;-73
2023/10/07 09:39:45;;;;;;;;;15.33;13.33;;;;;18.73;100.00;102441.31;5058574;28;45460;-76
2023/10/07 09:42:26;;;;;;;;;13.67;13.33;;;;;18.81;100.00;102439.56;5073236;28;45511;-73
2023/10/07 09:44:55;;;;;;;;;15.67;14.33;;;;;18.90;100.00;102436.91;5057421;28;45305;-74
2023/10/07 09:47:21;;;;;;;;;13.67;11.00;;;;;19.02;100.00;102433.38;5073113;28;46661;-74
2023/10/07 09:49:47;;;;;;;;;11.00;9.33;;;;;19.10;100.00;102436.94;5056037;28;45298;-73
2023/10/07 09:52:17;;;;;;;;;9.67;7.67;;;;;19.19;100.00;102439.63;5057934;28;45451;-73
2023/10/07 09:55:38;;;;;;;;;12.00;9.00;;;;;19.31;100.00;102436.06;5055304;28;45572;-74
2023/10/07 09:58:41;;;;;;;;;12.33;10.67;;;;;19.45;100.00;102444.13;5034516;28;46569;-73
2023/10/07 10:01:28;;;;;;;;;14.67;13.33;;;;;19.57;100.00;102444.09;5069397;28;46294;-75
2023/10/07 10:04:06;;;;;;;;;9.67;9.67;;;;;19.68;100.00;102447.69;5056301;28;45439;-75
2023/10/07 10:06:50;;;;;;;;;10.00;9.00;;;;;19.80;100.00;102453.03;5057501;28;45467;-75
2023/10/07 10:09:23;;;;;;;;;8.33;8.00;;;;;19.89;100.00;102445.00;5053300;28;46845;-75
2023/10/07 10:11:55;;;;;;;;;14.67;12.00;;;;;20.02;100.00;102442.28;5054994;28;45611;-73
2023/10/07 10:14:39;;;;;;;;;10.67;10.67;;;;;20.17;100.00;102435.97;5055878;28;45500;-75
2023/10/07 10:17:12;;;;;;;;;9.00;9.00;;;;;20.27;100.00;102440.44;5055776;28;46653;-73
2023/10/07 10:19:49;;;;;;;;;7.67;7.67;;;;;20.35;100.00;102433.25;5056122;28;45819;-75
2023/10/07 10:22:22;;;;;;;;;10.00;8.67;;;;;20.50;100.00;102440.34;5053530;28;45387;-73
2023/10/07 10:24:54;;;;;;;;;6.33;6.00;;;;;20.59;100.00;102424.22;5056928;28;45754;-74
2023/10/07 10:27:19;;;;;;;;;7.00;7.00;;;;;20.70;100.00;102424.16;5057319;28;45403;-73
2023/10/07 10:29:52;;;;;;;;;8.00;6.67;;;;;20.81;100.00;102411.56;5071744;27;56702;-72
2023/10/07 10:32:28;;;;;;;;;8.67;7.67;;;;;20.92;100.00;102407.91;5054929;28;45270;-74
2023/10/07 10:34:55;;;;;;;;;7.00;7.00;;;;;21.05;100.00;102410.53;5054971;28;45401;-73
2023/10/07 10:37:23;;;;;;;;;3.33;3.00;;;;;21.13;100.00;102400.59;5056774;28;45356;-73
2023/10/07 10:39:49;;;;;;;;;6.67;6.67;;;;;21.16;100.00;102401.47;5061370;28;46503;-73
2023/10/07 10:42:14;;;;;;;;;7.00;4.33;;;;;21.25;100.00;102400.50;5072296;28;45432;-73
2023/10/07 10:44:42;;;;;;;;;5.67;4.00;;;;;21.35;100.00;102395.97;5055027;28;45432;-75
2023/10/07 10:47:09;;;;;;;;;5.33;4.00;;;;;21.41;100.00;102391.47;5057136;28;45516;-73
2023/10/07 10:49:35;;;;;;;;;4.33;4.33;;;;;21.50;100.00;102392.25;5055831;28;46118;-74
2023/10/07 10:52:02;;;;;;;;;6.33;4.00;;;;;21.56;100.00;102394.88;5057302;28;45505;-73
2023/10/07 10:54:28;;;;;;;;;5.33;3.67;;;;;21.62;100.00;102390.31;5056642;28;45551;-73
2023/10/07 10:56:58;;;;;;;;;8.00;6.00;;;;;21.69;100.00;102393.88;5054516;28;45524;-74
2023/10/07 10:59:47;;;;;;;;;4.33;4.33;;;;;21.81;100.00;102392.84;5055358;28;46067;-73
2023/10/07 11:02:23;;;;;;;;;8.67;3.33;;;;;21.89;100.00;102394.56;5056594;28;45527;-77
2023/10/07 11:04:54;;;;;;;;;7.67;4.00;;;;;21.98;100.00;102386.34;5053049;28;45350;-73
2023/10/07 11:07:20;;;;;;;;;5.67;5.00;;;;;22.07;100.00;102388.06;5187579;22;45249;-74
2023/10/07 11:09:51;;;;;;;;;4.00;4.00;;;;;22.13;100.00;102381.75;5055305;28;46516;-73
2023/10/07 11:12:17;;;;;;;;;6.67;6.67;;;;;22.21;100.00;102387.91;5055430;28;45492;-74
2023/10/07 11:14:44;;;;;;;;;7.33;5.33;;;;;22.28;100.00;102383.38;5054621;28;45508;-72
2023/10/07 11:17:10;;;;;;;;;29.33;23.00;;;;;22.36;100.00;102376.94;5054323;28;45333;-72
2023/10/07 11:19:40;;;;;;;;;10.00;7.00;;;;;22.43;100.00;102375.97;5055804;28;46176;-72
2023/10/07 11:22:07;;;;;;;;;7.00;5.33;;;;;22.47;100.00;102363.34;5056331;28;45503;-72
2023/10/07 11:24:35;;;;;;;;;4.00;4.00;;;;;22.53;100.00;102365.97;5054743;28;45480;-72
2023/10/07 11:27:02;;;;;;;;;5.00;5.00;;;;;22.60;100.00;102362.28;5072338;28;45461;-72
2023/10/07 11:29:31;;;;;;;;;7.33;3.00;;;;;22.64;100.00;102364.00;5055979;28;47681;-72
2023/10/07 11:32:01;;;;;;;;;6.33;4.33;;;;;22.70;100.00;102349.56;5054693;28;45379;-75
2023/10/07 11:34:36;;;;;;;;;7.00;5.00;;;;;22.72;100.00;102354.00;5071335;27;45434;-73
2023/10/07 11:37:09;;;;;;;;;4.00;4.00;;;;;22.80;100.00;102355.69;5054455;28;45583;-75
2023/10/07 11:39:38;;;;;;;;;8.00;5.00;;;;;22.83;100.00;102351.16;5056183;28;47504;-73
2023/10/07 11:42:05;;;;;;;;;5.00;5.00;;;;;22.87;100.00;102350.19;5053900;28;45838;-75
2023/10/07 11:44:31;;;;;;;;;6.00;4.00;;;;;22.94;100.00;102340.22;5055676;28;45242;-73
2023/10/07 11:46:56;;;;;;;;;6.00;4.00;;;;;22.96;100.00;102338.41;5055791;28;45496;-73
2023/10/07 11:49:22;;;;;;;;;3.00;3.00;;;;;23.03;100.00;102342.78;5055155;28;52901;-72
2023/10/07 11:51:48;;;;;;;;;5.67;4.33;;;;;23.08;100.00;102343.59;5056128;28;45361;-72
2023/10/07 11:54:13;;;;;;;;;5.67;5.33;;;;;23.13;100.00;102344.41;5055535;28;45325;-75
2023/10/07 11:56:39;;;;;;;;;4.33;3.00;;;;;23.18;100.00;102350.59;5055523;28;54752;-73